createdAt,value
2022-10-27T00:00:45.987Z,90.50
2022-10-27T00:03:15.946Z,91.93
2022-10-27T00:05:44.794Z,92.08
2022-10-27T00:08:16.963Z,91.54
2022-10-27T00:10:45.330Z,91.39
2022-10-27T00:13:14.536Z,90.60
2022-10-27T00:15:42.949Z,90.64
2022-10-27T00:18:12.267Z,90.72
2022-10-27T00:20:39.977Z,91.20
2022-10-27T00:23:07.710Z,90.70
2022-10-27T00:25:36.837Z,91.56
2022-10-27T00:28:04.680Z,90.81
2022-10-27T00:30:32.416Z,90.92
2022-10-27T00:33:00.322Z,91.24
2022-10-27T00:35:28.056Z,91.11
2022-10-27T00:37:55.792Z,90.94
2022-10-27T00:40:23.577Z,92.08
2022-10-27T00:42:52.700Z,91.61
2022-10-27T00:45:20.630Z,91.53
2022-10-27T00:47:49.421Z,90.79
2022-10-27T00:50:21.066Z,91.56
2022-10-27T00:52:52.729Z,91.44
2022-10-27T00:55:25.274Z,90.78
2022-10-27T00:57:58.156Z,90.79
2022-10-27T01:00:26.333Z,90.98
2022-10-27T01:02:54.328Z,90.74
2022-10-27T01:05:24.601Z,90.42
2022-10-27T01:07:56.036Z,90.31
2022-10-27T01:10:24.412Z,90.40
2022-10-27T01:12:52.595Z,90.77
2022-10-27T01:15:24.055Z,90.47
2022-10-27T01:17:57.409Z,91.24
2022-10-27T01:20:43.366Z,91.30
2022-10-27T01:23:24.143Z,90.58
2022-10-27T01:26:15.637Z,90.77
2022-10-27T01:29:15.721Z,91.45
2022-10-27T01:31:51.325Z,91.25
2022-10-27T01:34:23.700Z,90.55
2022-10-27T01:36:55.547Z,90.89
2022-10-27T01:39:30.166Z,91.20
2022-10-27T01:42:04.170Z,90.38
2022-10-27T01:44:36.417Z,90.65
2022-10-27T01:47:06.330Z,90.60
2022-10-27T01:49:36.922Z,91.31
2022-10-27T01:52:06.616Z,90.77
2022-10-27T01:54:39.858Z,91.10
2022-10-27T01:57:24.952Z,91.91
2022-10-27T02:00:04.367Z,91.50
2022-10-27T02:02:40.400Z,91.43
2022-10-27T02:05:13.688Z,92.17
2022-10-27T02:07:55.460Z,91.75
2022-10-27T02:10:27.004Z,91.85
2022-10-27T02:12:57.097Z,91.70
2022-10-27T02:15:32.273Z,91.41
2022-10-27T02:18:06.195Z,91.39
2022-10-27T02:20:38.058Z,91.64
2022-10-27T02:23:08.832Z,91.76
2022-10-27T02:25:43.325Z,91.68
2022-10-27T02:28:16.389Z,91.53
2022-10-27T02:33:16.884Z,90.96
2022-10-27T02:35:47.832Z,91.55
2022-10-27T02:38:16.639Z,90.54
2022-10-27T02:40:44.484Z,90.54
2022-10-27T02:43:12.186Z,91.50
2022-10-27T02:45:39.930Z,91.18
2022-10-27T02:48:07.688Z,90.92
2022-10-27T02:50:36.821Z,90.89
2022-10-27T02:53:04.561Z,91.32
2022-10-27T02:55:32.323Z,90.98
2022-10-27T02:58:00.119Z,91.12
2022-10-27T03:02:55.663Z,91.18
2022-10-27T03:05:23.472Z,90.93
2022-10-27T03:07:52.547Z,90.77
2022-10-27T03:10:20.315Z,91.12
2022-10-27T03:12:48.609Z,91.71
2022-10-27T03:15:17.293Z,91.09
2022-10-27T03:17:46.528Z,90.76
2022-10-27T03:20:15.948Z,90.55
2022-10-27T03:22:43.974Z,90.57
2022-10-27T03:25:15.032Z,90.82
2022-10-27T03:27:44.601Z,91.66
2022-10-27T03:30:16.018Z,91.33
2022-10-27T03:32:47.426Z,91.00
2022-10-27T03:35:15.723Z,90.76
2022-10-27T03:37:43.475Z,91.11
2022-10-27T03:40:13.263Z,91.56
2022-10-27T03:42:42.555Z,91.46
2022-10-27T03:45:11.668Z,92.50
2022-10-27T03:47:39.536Z,91.00
2022-10-27T03:50:08.717Z,91.21
2022-10-27T03:52:36.650Z,92.08
2022-10-27T03:55:04.677Z,92.22
2022-10-27T03:57:33.816Z,92.17
2022-10-27T04:00:01.664Z,91.71
2022-10-27T04:02:29.477Z,92.11
2022-10-27T04:04:57.760Z,92.94
2022-10-27T04:07:25.534Z,92.68
2022-10-27T04:09:53.317Z,91.88
2022-10-27T04:12:21.084Z,91.95
2022-10-27T04:14:51.005Z,92.58
2022-10-27T04:17:19.069Z,92.18
2022-10-27T04:19:46.820Z,91.71
2022-10-27T04:22:14.644Z,92.36
2022-10-27T04:24:42.421Z,92.07
2022-10-27T04:27:10.488Z,92.61
2022-10-27T04:29:38.235Z,92.04
2022-10-27T04:32:07.452Z,92.26
2022-10-27T04:34:35.180Z,92.29
2022-10-27T04:37:02.900Z,92.05
2022-10-27T04:39:30.748Z,92.10
2022-10-27T04:41:58.530Z,92.30
2022-10-27T04:44:26.715Z,92.72
2022-10-27T04:46:54.450Z,92.31
2022-10-27T04:49:23.611Z,92.84
2022-10-27T04:51:51.428Z,92.49
2022-10-27T04:54:19.152Z,92.36
2022-10-27T04:56:47.008Z,92.58
2022-10-27T04:59:15.015Z,92.10
2022-10-27T05:01:42.799Z,91.68
2022-10-27T05:04:10.717Z,91.51
2022-10-27T05:06:39.889Z,91.86
2022-10-27T05:09:07.812Z,92.09
2022-10-27T05:11:35.586Z,91.97
2022-10-27T05:14:03.513Z,92.18
2022-10-27T05:16:31.315Z,91.32
2022-10-27T05:18:59.135Z,91.37
2022-10-27T05:21:26.941Z,91.32
2022-10-27T05:23:56.177Z,91.15
2022-10-27T05:26:24.058Z,91.84
2022-10-27T05:28:51.835Z,91.69
2022-10-27T05:31:19.513Z,91.64
2022-10-27T05:33:47.328Z,91.47
2022-10-27T05:36:15.202Z,91.80
2022-10-27T05:38:43.075Z,91.29
2022-10-27T05:41:12.508Z,90.65
2022-10-27T05:43:42.618Z,91.95
2022-10-27T05:46:10.872Z,91.56
2022-10-27T05:48:38.878Z,91.08
2022-10-27T05:51:08.043Z,91.20
2022-10-27T05:53:35.875Z,91.46
2022-10-27T05:56:03.611Z,92.21
2022-10-27T05:58:32.889Z,91.72
2022-10-27T06:01:00.785Z,91.21
2022-10-27T06:03:28.765Z,91.46
2022-10-27T06:05:56.647Z,91.10
2022-10-27T06:08:25.124Z,91.86
2022-10-27T06:10:52.949Z,92.26
2022-10-27T06:13:20.809Z,91.98
2022-10-27T06:15:50.024Z,92.66
2022-10-27T06:18:17.977Z,91.98
2022-10-27T06:20:45.785Z,91.59
2022-10-27T06:23:13.720Z,91.95
2022-10-27T06:25:42.151Z,91.89
2022-10-27T06:28:10.096Z,92.31
2022-10-27T06:30:37.849Z,91.85
2022-10-27T06:33:06.957Z,91.65
2022-10-27T06:35:38.864Z,91.92
2022-10-27T06:38:06.780Z,91.97
2022-10-27T06:40:34.612Z,91.84
2022-10-27T06:43:06.586Z,91.83
2022-10-27T06:45:35.247Z,91.51
2022-10-27T06:48:03.155Z,91.51
2022-10-27T06:50:32.382Z,91.61
2022-10-27T06:53:01.262Z,92.05
2022-10-27T06:55:29.372Z,91.44
2022-10-27T06:57:57.250Z,91.99
2022-10-27T07:00:25.824Z,91.53
2022-10-27T07:02:53.842Z,90.87
2022-10-27T07:05:22.227Z,91.54
2022-10-27T07:07:53.174Z,91.61
2022-10-27T07:10:22.330Z,91.15
2022-10-27T07:12:55.021Z,91.35
2022-10-27T07:15:23.598Z,91.02
2022-10-27T07:17:58.688Z,90.75
2022-10-27T07:20:27.972Z,89.95
2022-10-27T07:22:57.788Z,89.46
2022-10-27T07:25:25.877Z,90.25
2022-10-27T07:27:55.221Z,90.14
2022-10-27T07:30:24.889Z,90.65
2022-10-27T07:32:52.828Z,88.89
2022-10-27T07:35:20.619Z,88.81
2022-10-27T07:37:49.020Z,88.45
2022-10-27T07:40:20.719Z,88.42
2022-10-27T07:42:50.169Z,88.55
2022-10-27T07:45:20.426Z,89.76
2022-10-27T07:47:49.754Z,90.20
2022-10-27T07:50:18.890Z,90.43
2022-10-27T07:52:48.656Z,90.26
2022-10-27T07:55:19.338Z,90.08
2022-10-27T07:57:47.250Z,89.65
2022-10-27T08:00:17.372Z,88.88
2022-10-27T08:02:45.928Z,88.42
2022-10-27T08:05:13.667Z,89.30
2022-10-27T08:07:42.129Z,88.95
2022-10-27T08:10:11.082Z,89.36
2022-10-27T08:12:44.242Z,89.32
2022-10-27T08:15:13.041Z,89.03
2022-10-27T08:17:41.207Z,88.73
2022-10-27T08:20:12.805Z,89.16
2022-10-27T08:22:40.531Z,88.76
2022-10-27T08:25:10.196Z,88.97
2022-10-27T08:27:38.341Z,88.81
2022-10-27T08:30:09.087Z,88.91
2022-10-27T08:32:36.846Z,88.53
2022-10-27T08:35:04.887Z,88.25
2022-10-27T08:37:32.665Z,88.77
2022-10-27T08:40:00.531Z,87.93
2022-10-27T08:42:40.790Z,87.28
2022-10-27T08:45:14.349Z,88.01
2022-10-27T08:47:43.253Z,87.93
2022-10-27T08:50:15.526Z,86.88
2022-10-27T08:52:49.918Z,87.28
2022-10-27T08:55:26.197Z,86.50
2022-10-27T08:58:00.899Z,87.37
2022-10-27T09:00:35.271Z,86.31
2022-10-27T09:03:23.656Z,86.36
2022-10-27T09:06:00.719Z,85.91
2022-10-27T09:08:36.864Z,85.86
2022-10-27T09:11:17.788Z,85.24
2022-10-27T09:14:04.667Z,85.33
2022-10-27T09:16:40.137Z,85.43
2022-10-27T09:19:14.079Z,85.80
2022-10-27T09:21:44.566Z,84.78
2022-10-27T09:24:15.218Z,84.53
2022-10-27T09:26:46.804Z,83.87
2022-10-27T09:29:20.554Z,84.41
2022-10-27T09:31:55.394Z,84.05
2022-10-27T09:34:27.417Z,83.90
2022-10-27T09:36:56.084Z,83.02
2022-10-27T09:39:24.595Z,83.57
2022-10-27T09:41:53.288Z,82.98
2022-10-27T09:44:28.324Z,83.08
2022-10-27T09:46:58.102Z,82.06
2022-10-27T09:49:34.382Z,81.44
2022-10-27T09:52:07.794Z,81.46
2022-10-27T09:54:39.198Z,81.66
2022-10-27T09:57:09.363Z,81.20
2022-10-27T09:59:38.955Z,81.48
2022-10-27T10:02:25.648Z,80.96
2022-10-27T10:04:54.142Z,81.03
2022-10-27T10:07:35.952Z,79.90
2022-10-27T10:10:07.282Z,80.25
2022-10-27T10:12:35.130Z,79.32
2022-10-27T10:15:20.903Z,79.17
2022-10-27T10:17:56.039Z,79.22
2022-10-27T10:20:32.730Z,78.51
2022-10-27T10:23:02.562Z,79.05
2022-10-27T10:25:33.103Z,77.70
2022-10-27T10:28:03.859Z,76.30
2022-10-27T10:30:35.288Z,75.67
2022-10-27T10:33:06.734Z,74.69
2022-10-27T10:35:43.604Z,74.56
2022-10-27T10:38:29.108Z,75.23
2022-10-27T10:41:02.821Z,74.07
2022-10-27T10:43:31.085Z,73.16
2022-10-27T10:45:59.526Z,72.91
2022-10-27T10:48:35.988Z,72.13
2022-10-27T10:51:04.288Z,71.55
2022-10-27T10:53:34.477Z,71.09
2022-10-27T10:56:05.613Z,70.99
2022-10-27T10:58:37.069Z,70.05
2022-10-27T11:01:07.799Z,69.57
2022-10-27T11:03:43.466Z,68.41
2022-10-27T11:06:19.108Z,68.64
2022-10-27T11:08:57.653Z,68.41
2022-10-27T11:11:28.876Z,69.33
2022-10-27T11:14:01.646Z,68.42
2022-10-27T11:16:32.996Z,68.64
2022-10-27T11:19:06.221Z,68.85
2022-10-27T11:21:40.293Z,69.17
2022-10-27T11:24:15.796Z,67.20
2022-10-27T11:26:53.643Z,67.22
2022-10-27T11:29:27.341Z,66.63
2022-10-27T11:32:03.033Z,65.96
2022-10-27T11:34:39.693Z,65.90
2022-10-27T11:37:12.642Z,65.76
2022-10-27T11:39:48.480Z,66.90
2022-10-27T11:42:28.230Z,66.98
2022-10-27T11:45:06.135Z,66.60
2022-10-27T11:47:40.700Z,65.79
2022-10-27T11:50:14.847Z,65.37
2022-10-27T11:52:46.264Z,65.29
2022-10-27T11:55:18.411Z,65.91
2022-10-27T11:57:54.632Z,65.36
2022-10-27T12:00:24.546Z,64.95
2022-10-27T12:03:15.042Z,65.29
2022-10-27T12:05:50.434Z,65.03
2022-10-27T12:11:09.293Z,65.84
2022-10-27T12:13:44.734Z,65.27
2022-10-27T12:16:19.514Z,65.77
2022-10-27T12:18:52.930Z,64.30
2022-10-27T12:21:27.606Z,64.46
2022-10-27T12:24:01.940Z,65.16
2022-10-27T12:26:36.858Z,64.09
2022-10-27T12:29:08.281Z,63.79
2022-10-27T12:31:42.261Z,63.33
2022-10-27T12:34:14.775Z,62.67
2022-10-27T12:36:50.654Z,62.61
2022-10-27T12:39:26.819Z,63.03
2022-10-27T12:42:05.769Z,62.29
2022-10-27T12:44:41.324Z,61.39
2022-10-27T12:47:24.776Z,62.14
2022-10-27T12:50:08.084Z,63.20
2022-10-27T12:52:48.236Z,62.34
2022-10-27T12:55:27.340Z,62.32
2022-10-27T12:58:06.684Z,63.04
2022-10-27T13:00:46.124Z,62.34
2022-10-27T13:03:39.311Z,63.20
2022-10-27T13:06:25.998Z,62.66
2022-10-27T13:09:14.032Z,63.69
2022-10-27T13:11:57.182Z,62.94
2022-10-27T13:14:49.725Z,62.52
2022-10-27T13:17:28.586Z,62.10
2022-10-27T13:20:05.264Z,62.14
2022-10-27T13:22:42.068Z,62.48
2022-10-27T13:25:20.821Z,62.43
2022-10-27T13:27:56.074Z,61.69
2022-10-27T13:30:26.009Z,61.61
2022-10-27T13:32:56.296Z,61.91
2022-10-27T13:35:35.142Z,62.03
2022-10-27T13:38:24.866Z,62.73
2022-10-27T13:40:56.835Z,61.61
2022-10-27T13:43:48.069Z,61.61
2022-10-27T13:46:18.157Z,61.86
2022-10-27T13:48:50.338Z,61.68
2022-10-27T13:51:49.222Z,61.26
2022-10-27T13:54:56.518Z,60.81
2022-10-27T13:57:55.415Z,60.00
2022-10-27T14:00:28.172Z,60.97
2022-10-27T14:03:21.508Z,59.62
2022-10-27T14:05:50.687Z,60.33
2022-10-27T14:08:21.820Z,60.06
2022-10-27T14:10:51.119Z,59.76
2022-10-27T14:13:24.914Z,59.86
2022-10-27T14:16:00.856Z,59.99
2022-10-27T14:18:31.816Z,59.76
2022-10-27T14:21:04.292Z,60.43
2022-10-27T14:23:34.291Z,59.56
2022-10-27T14:26:23.246Z,60.02
2022-10-27T14:28:53.561Z,60.10
2022-10-27T14:31:24.088Z,60.63
2022-10-27T14:33:53.278Z,60.12
2022-10-27T14:36:25.603Z,61.45
2022-10-27T14:38:59.642Z,61.36
2022-10-27T14:41:33.097Z,60.74
2022-10-27T14:44:05.496Z,59.98
2022-10-27T14:46:41.004Z,59.77
2022-10-27T14:49:15.701Z,60.00
2022-10-27T14:51:47.106Z,59.56
2022-10-27T14:54:19.292Z,59.94
2022-10-27T14:56:47.416Z,59.72
2022-10-27T14:59:22.474Z,60.16
2022-10-27T15:01:50.970Z,59.54
2022-10-27T15:04:22.948Z,60.37
2022-10-27T15:06:53.238Z,60.44
2022-10-27T15:09:31.673Z,61.14
2022-10-27T15:12:02.887Z,60.59
2022-10-27T15:14:35.259Z,61.27
2022-10-27T15:17:03.554Z,60.79
2022-10-27T15:19:31.688Z,60.00
2022-10-27T15:22:21.384Z,58.95
2022-10-27T15:24:50.274Z,57.95
2022-10-27T15:27:22.101Z,58.26
2022-10-27T15:29:52.130Z,59.35
2022-10-27T15:32:22.108Z,61.59
2022-10-27T15:34:50.693Z,62.22
2022-10-27T15:37:33.735Z,63.92
2022-10-27T15:40:31.069Z,65.02
2022-10-27T15:43:00.244Z,66.07
2022-10-27T15:45:37.615Z,66.94
2022-10-27T15:48:06.115Z,67.00
2022-10-27T15:50:37.450Z,67.57
2022-10-27T15:53:18.377Z,68.51
2022-10-27T15:55:58.233Z,68.78
2022-10-27T15:58:31.722Z,70.64
2022-10-27T16:01:09.237Z,71.78
2022-10-27T16:03:45.507Z,72.12
2022-10-27T16:06:24.198Z,73.05
2022-10-27T16:08:54.790Z,73.79
2022-10-27T16:11:23.846Z,74.29
2022-10-27T16:13:55.584Z,75.25
2022-10-27T16:16:24.621Z,76.71
2022-10-27T16:18:53.071Z,78.29
2022-10-27T16:21:24.844Z,78.35
2022-10-27T16:23:54.733Z,78.91
2022-10-27T16:26:27.728Z,79.09
2022-10-27T16:29:00.802Z,79.19
2022-10-27T16:31:30.504Z,79.47
2022-10-27T16:33:59.290Z,79.19
2022-10-27T16:36:27.519Z,78.80
2022-10-27T16:38:56.745Z,79.29
2022-10-27T16:41:28.456Z,80.00
2022-10-27T16:43:56.872Z,81.61
2022-10-27T16:46:24.864Z,80.53
2022-10-27T16:48:53.090Z,80.11
2022-10-27T16:51:21.207Z,80.72
2022-10-27T16:53:49.719Z,80.76
2022-10-27T16:56:19.128Z,80.97
2022-10-27T16:58:47.146Z,81.17
2022-10-27T17:01:17.343Z,81.65
2022-10-27T17:03:45.576Z,81.45
2022-10-27T17:06:16.790Z,81.35
2022-10-27T17:08:46.609Z,81.11
2022-10-27T17:11:18.932Z,80.84
2022-10-27T17:13:48.847Z,80.84
2022-10-27T17:16:18.480Z,80.75
2022-10-27T17:18:47.693Z,80.69
2022-10-27T17:21:17.520Z,80.93
2022-10-27T17:23:45.852Z,80.78
2022-10-27T17:26:15.205Z,80.59
2022-10-27T17:28:46.421Z,80.52
2022-10-27T17:31:20.958Z,80.61
2022-10-27T17:33:53.749Z,82.10
2022-10-27T17:36:21.822Z,81.99
2022-10-27T17:38:50.094Z,82.35
2022-10-27T17:41:17.957Z,84.02
2022-10-27T17:43:47.082Z,82.75
2022-10-27T17:46:18.051Z,81.35
2022-10-27T17:48:47.668Z,80.74
2022-10-27T17:51:17.823Z,80.58
2022-10-27T17:53:49.170Z,80.78
2022-10-27T17:56:19.699Z,81.01
2022-10-27T17:58:49.581Z,81.15
2022-10-27T18:01:21.600Z,81.12
2022-10-27T18:03:51.734Z,81.16
2022-10-27T18:06:21.350Z,80.90
2022-10-27T18:08:53.747Z,81.08
2022-10-27T18:11:24.176Z,82.02
2022-10-27T18:13:55.260Z,81.78
2022-10-27T18:16:27.676Z,83.14
2022-10-27T18:18:59.089Z,83.06
2022-10-27T18:21:27.958Z,82.14
2022-10-27T18:23:58.939Z,81.48
2022-10-27T18:26:28.177Z,81.20
2022-10-27T18:28:57.047Z,81.45
2022-10-27T18:31:28.943Z,81.54
2022-10-27T18:33:58.031Z,82.04
2022-10-27T18:36:30.574Z,82.50
2022-10-27T18:39:00.976Z,82.53
2022-10-27T18:41:38.734Z,83.49
2022-10-27T18:44:18.150Z,83.90
2022-10-27T18:46:58.296Z,83.57
2022-10-27T18:49:46.863Z,84.29
2022-10-27T18:52:17.974Z,85.43
2022-10-27T18:54:47.102Z,84.22
2022-10-27T18:57:15.069Z,84.09
2022-10-27T18:59:43.388Z,84.02
2022-10-27T19:02:13.857Z,83.85
2022-10-27T19:04:41.942Z,83.65
2022-10-27T19:07:11.653Z,83.65
2022-10-27T19:09:39.914Z,83.28
2022-10-27T19:12:11.374Z,83.43
2022-10-27T19:14:39.393Z,83.09
2022-10-27T19:17:07.300Z,83.39
2022-10-27T19:19:36.545Z,83.53
2022-10-27T19:22:04.714Z,83.86
2022-10-27T19:24:32.800Z,84.36
2022-10-27T19:27:03.615Z,84.65
2022-10-27T19:29:31.668Z,84.69
2022-10-27T19:31:59.791Z,85.15
2022-10-27T19:34:27.648Z,86.05
2022-10-27T19:36:56.796Z,85.30
2022-10-27T19:39:25.687Z,84.29
2022-10-27T19:41:54.830Z,83.98
2022-10-27T19:44:23.882Z,84.07
2022-10-27T19:46:51.753Z,84.28
2022-10-27T19:49:20.015Z,85.13
2022-10-27T19:51:47.880Z,84.68
2022-10-27T19:54:19.594Z,84.37
2022-10-27T19:56:48.547Z,84.69
2022-10-27T19:59:17.689Z,84.17
2022-10-27T20:01:50.389Z,84.43
2022-10-27T20:04:20.903Z,84.81
2022-10-27T20:06:48.728Z,84.33
2022-10-27T20:09:20.563Z,84.10
2022-10-27T20:11:49.279Z,84.37
2022-10-27T20:14:19.809Z,84.72
2022-10-27T20:16:48.305Z,84.27
2022-10-27T20:19:21.611Z,84.58
2022-10-27T20:21:50.675Z,85.18
2022-10-27T20:24:22.772Z,85.19
2022-10-27T20:29:22.829Z,86.03
2022-10-27T20:31:55.469Z,85.78
2022-10-27T20:34:23.381Z,86.08
2022-10-27T20:36:51.222Z,86.51
2022-10-27T20:39:24.346Z,87.15
2022-10-27T20:41:52.701Z,87.18
2022-10-27T20:44:20.540Z,87.22
2022-10-27T20:46:48.869Z,87.84
2022-10-27T20:49:16.773Z,88.21
2022-10-27T20:51:44.895Z,88.24
2022-10-27T20:54:13.808Z,88.39
2022-10-27T20:56:43.283Z,88.97
2022-10-27T20:59:11.153Z,89.04
2022-10-27T21:01:40.587Z,89.28
2022-10-27T21:04:11.345Z,89.83
2022-10-27T21:06:42.439Z,89.98
2022-10-27T21:09:12.817Z,90.09
2022-10-27T21:11:41.670Z,91.30
2022-10-27T21:14:12.076Z,91.03
2022-10-27T21:16:40.505Z,91.19
2022-10-27T21:19:10.026Z,91.64
2022-10-27T21:21:39.215Z,91.37
2022-10-27T21:24:10.852Z,91.40
2022-10-27T21:26:41.243Z,91.92
2022-10-27T21:29:11.876Z,91.58
2022-10-27T21:31:40.704Z,91.69
2022-10-27T21:34:09.137Z,91.67
2022-10-27T21:36:37.359Z,91.80
2022-10-27T21:39:07.167Z,91.80
2022-10-27T21:41:35.776Z,91.83
2022-10-27T21:44:03.873Z,91.75
2022-10-27T21:46:33.329Z,91.82
2022-10-27T21:49:02.534Z,91.96
2022-10-27T21:51:31.283Z,92.14
2022-10-27T21:54:01.793Z,91.98
2022-10-27T21:56:30.811Z,91.78
2022-10-27T21:58:59.121Z,91.76
2022-10-27T22:01:27.169Z,91.88
2022-10-27T22:03:57.233Z,91.81
2022-10-27T22:06:27.412Z,91.92
2022-10-27T22:08:55.594Z,92.21
2022-10-27T22:11:25.210Z,92.27
2022-10-27T22:13:53.408Z,92.09
2022-10-27T22:16:23.346Z,92.32
2022-10-27T22:18:53.798Z,92.13
2022-10-27T22:21:23.617Z,92.63
2022-10-27T22:23:51.787Z,92.96
2022-10-27T22:26:21.380Z,92.50
2022-10-27T22:28:53.587Z,92.32
2022-10-27T22:31:22.872Z,91.92
2022-10-27T22:33:51.992Z,91.89
2022-10-27T22:36:21.377Z,92.32
2022-10-27T22:38:55.039Z,92.46
2022-10-27T22:41:23.451Z,92.30
2022-10-27T22:43:51.711Z,92.36
2022-10-27T22:46:21.895Z,92.23
2022-10-27T22:48:50.085Z,91.91
2022-10-27T22:51:20.107Z,92.03
2022-10-27T22:53:48.763Z,92.56
2022-10-27T22:56:19.584Z,93.00
2022-10-27T22:58:48.985Z,93.21
2022-10-27T23:01:19.369Z,92.95
2022-10-27T23:03:51.053Z,92.82
2022-10-27T23:06:19.414Z,93.00
2022-10-27T23:08:47.591Z,93.10
2022-10-27T23:11:15.505Z,92.89
2022-10-27T23:13:44.801Z,93.06
2022-10-27T23:16:12.626Z,92.83
2022-10-27T23:18:41.159Z,92.70
2022-10-27T23:21:13.601Z,92.69
2022-10-27T23:23:43.241Z,92.97
2022-10-27T23:26:17.855Z,92.49
2022-10-27T23:28:48.950Z,92.51
2022-10-27T23:31:16.828Z,92.72
2022-10-27T23:33:44.719Z,92.98
2022-10-27T23:36:13.291Z,93.08
2022-10-27T23:38:41.070Z,92.81
2022-10-27T23:41:10.471Z,92.51
2022-10-27T23:43:38.645Z,92.32
2022-10-27T23:46:10.973Z,92.06
2022-10-27T23:48:39.159Z,91.78
2022-10-27T23:51:07.314Z,92.20
2022-10-27T23:53:35.147Z,92.08
2022-10-27T23:56:04.783Z,92.67
2022-10-27T23:58:34.447Z,92.45
